WetterOnline ( http://www.wetteronline.de )

Wetter aktuell Darß/Zingst

Aktuelles Wetter: Barth (7m)

6-stündlich | Neueste Meldungen
Ortszeit Temperatur Wetter
Mo, 21.05. 14:00 20.3° C leicht bewölkt
Mo, 21.05. 8:00 12.9° C bedeckt
Mo, 21.05. 2:00 7.2° C fast wolkenlos
So, 20.05. 20:00 14.5° C wolkenlos
So, 20.05. 14:00 18.4° C wolkenlos
So, 20.05. 8:00 13.7° C wolkenlos
So, 20.05. 2:00 5.1° C wolkenlos
Sa, 19.05. 20:00 14.5° C wolkenlos
Ortszeit Temperatur Wetter
Mo, 21.05. 18:30 18.5° C leicht bewölkt
Mo, 21.05. 18:20 18.5° C leicht bewölkt
Mo, 21.05. 18:10 18.6° C leicht bewölkt
Mo, 21.05. 18:00 18.9° C leicht bewölkt
Mo, 21.05. 17:50 18.9° C wolkig
Mo, 21.05. 17:40 18.8° C wolkig
Mo, 21.05. 17:30 19.1° C leicht bewölkt
Mo, 21.05. 17:00 19.4° C leicht bewölkt
Mo, 21.05. 16:30 19.8° C wolkenlos
Mo, 21.05. 16:00 19.9° C leicht bewölkt
Mo, 21.05. 15:30 19.8° C leicht bewölkt
Ortszeit Relative Feuchte Sichtweite
Mo, 21.05. 14:00 44% 9 km
Mo, 21.05. 8:00 85% 40 km
Mo, 21.05. 2:00 97% 35 km
So, 20.05. 20:00 45% 50 km
So, 20.05. 14:00 53% 21 km
So, 20.05. 8:00 67% 55 km
So, 20.05. 2:00 89% 50 km
Sa, 19.05. 20:00 55% 45 km
Ortszeit Relative Feuchte Sichtweite
Mo, 21.05. 18:30 54% 16 km
Mo, 21.05. 18:20 54% -
Mo, 21.05. 18:10 51% -
Mo, 21.05. 18:00 50% 19 km
Mo, 21.05. 17:50 50% -
Mo, 21.05. 17:40 49% -
Mo, 21.05. 17:30 43% 11 km
Mo, 21.05. 17:00 39% 10 km
Mo, 21.05. 16:30 41% 11 km
Mo, 21.05. 16:00 42% 6 km
Mo, 21.05. 15:30 45% 10 km
Ortszeit Niederschlagsmenge Niederschlagsart
Mo, 21.05. 14:00 0.0 l/m2 in 6 Std. -
Mo, 21.05. 8:00 0.0 l/m2 in 12 Std. -
Mo, 21.05. 2:00 0.0 l/m2 in 6 Std. -
So, 20.05. 20:00 0.0 l/m2 in 12 Std. -
So, 20.05. 14:00 0.0 l/m2 in 6 Std. -
So, 20.05. 8:00 0.0 l/m2 in 12 Std. -
So, 20.05. 2:00 0.0 l/m2 in 6 Std. -
Sa, 19.05. 20:00 0.0 l/m2 in 12 Std. -
Ortszeit Niederschlagsmenge Niederschlagsart
Mo, 21.05. 18:30 0.0 l/m2 in 1 Std. -
Mo, 21.05. 18:20 keine Meldung -
Mo, 21.05. 18:10 keine Meldung -
Mo, 21.05. 18:00 0.0 l/m2 in 1 Std. -
Mo, 21.05. 17:50 keine Meldung -
Mo, 21.05. 17:40 keine Meldung -
Mo, 21.05. 17:30 0.0 l/m2 in 1 Std. -
Mo, 21.05. 17:00 0.0 l/m2 in 1 Std. -
Mo, 21.05. 16:30 0.0 l/m2 in 1 Std. -
Mo, 21.05. 16:00 0.0 l/m2 in 1 Std. -
Mo, 21.05. 15:30 0.0 l/m2 in 1 Std. -
Ortszeit Stärke Spitze Richtung
km/h Bft. km/h Grad Sektor
Mo, 21.05. 14:00 31 5 43 90° O
Mo, 21.05. 8:00 6 1 9 80° O
Mo, 21.05. 2:00 4 1 25 30° NO
So, 20.05. 20:00 18 3 36 80° O
So, 20.05. 14:00 17 3 31 80° O
So, 20.05. 8:00 0 0 7 - -
So, 20.05. 2:00 2 1 20 170° S
Sa, 19.05. 20:00 14 3 29 100° O
Ortszeit Stärke Spitze Richtung
km/h Bft. km/h Grad Sektor
Mo, 21.05. 18:30 24 4 33 80° O
Mo, 21.05. 18:20 24 4 - 80° O
Mo, 21.05. 18:10 24 4 - 80° O
Mo, 21.05. 18:00 26 4 37 80° O
Mo, 21.05. 17:50 26 4 - 80° O
Mo, 21.05. 17:40 28 4 - 80° O
Mo, 21.05. 17:30 28 4 37 80° O
Mo, 21.05. 17:00 30 5 43 70° O
Mo, 21.05. 16:30 30 5 43 70° O
Mo, 21.05. 16:00 32 5 47 70° O
Mo, 21.05. 15:30 31 5 44 70° O
Ortszeit Untergrenze Bedeckung Gattung
total tief tief mittel hoch
Mo, 21.05. 14:00 8100 m 8/8 0/8 - - -
Mo, 21.05. 8:00 6900 m 8/8 8/8 - - -
Mo, 21.05. 2:00 10500 m 1/8 0/8 - - -
So, 20.05. 20:00 - 0/8 0/8 - - -
So, 20.05. 14:00 - 0/8 0/8 - - -
So, 20.05. 8:00 - 0/8 0/8 - - -
So, 20.05. 2:00 - 0/8 0/8 - - -
Sa, 19.05. 20:00 2700 m 0/8 0/8 - - -
Ortszeit Bedeckungsgrad in Achtel und Wolkenuntergrenze
Mo, 21.05. 18:30 3(8400m)
Mo, 21.05. 18:20 3(8400m)
Mo, 21.05. 18:10 4(8700m)
Mo, 21.05. 18:00 7(8700m)
Mo, 21.05. 17:50 7(8700m)
Mo, 21.05. 17:40 7(8700m)
Mo, 21.05. 17:30 6(8700m)
Mo, 21.05. 17:00 7(8700m)
Mo, 21.05. 16:30 4(8700m)
Mo, 21.05. 16:00 2(9000m) 3(9000m)
Mo, 21.05. 15:30 1(8400m) 6(9000m)
Ortszeit Luftdruck NN (hPa) Tendenz (hPa in 3 Std.)
Mo, 21.05. 14:00 1024 - 1,6
Mo, 21.05. 8:00 1026 0,0
Mo, 21.05. 2:00 1027 - 0,3
So, 20.05. 20:00 1026 - 1,0
So, 20.05. 14:00 1028 - 0,2
So, 20.05. 8:00 1028 + 1,3
So, 20.05. 2:00 1027 + 0,8
Sa, 19.05. 20:00 1024 + 0,3
Ortszeit Luftdruck NN (hPa) Tendenz (hPa in 3 Std.)
Mo, 21.05. 18:30 1021 - 1,8
Mo, 21.05. 18:20 1021 keine Meldung
Mo, 21.05. 18:10 1021 keine Meldung
Mo, 21.05. 18:00 1021 - 1,8
Mo, 21.05. 17:50 1021 keine Meldung
Mo, 21.05. 17:40 1021 keine Meldung
Mo, 21.05. 17:30 1021 - 2,1
Mo, 21.05. 17:00 1022 - 2,1
Mo, 21.05. 16:30 1022 - 2,1
Mo, 21.05. 16:00 1022 - 1,9
Mo, 21.05. 15:30 1023 - 2,0
Ortszeit Schneehöhe (cm)
Mo, 21.05. 14:00 -
Mo, 21.05. 8:00 -
Mo, 21.05. 2:00 -
So, 20.05. 20:00 -
So, 20.05. 14:00 -
So, 20.05. 8:00 -
So, 20.05. 2:00 -
Sa, 19.05. 20:00 -
Ortszeit Schneehöhe (cm)
Mo, 21.05. 18:30 -
Mo, 21.05. 18:20 -
Mo, 21.05. 18:10 -
Mo, 21.05. 18:00 -
Mo, 21.05. 17:50 -
Mo, 21.05. 17:40 -
Mo, 21.05. 17:30 -
Mo, 21.05. 17:00 -
Mo, 21.05. 16:30 -
Mo, 21.05. 16:00 -
Mo, 21.05. 15:30 -
Link zu dieser Seite / Seite empfehlen

Das Wetter in ...